sensor_id;sensor_type;location;lat;lon;timestamp;temperature;humidity
68189;DHT22;66299;47.514;19.218;2023-05-10T00:01:40;10.70;82.43
68189;DHT22;66299;47.514;19.218;2023-05-10T00:04:11;10.60;82.73
68189;DHT22;66299;47.514;19.218;2023-05-10T00:06:44;10.47;83.03
68189;DHT22;66299;47.514;19.218;2023-05-10T00:09:14;10.42;83.55
68189;DHT22;66299;47.514;19.218;2023-05-10T00:11:43;10.37;83.58
68189;DHT22;66299;47.514;19.218;2023-05-10T00:14:13;10.33;83.77
68189;DHT22;66299;47.514;19.218;2023-05-10T00:16:44;10.26;83.87
68189;DHT22;66299;47.514;19.218;2023-05-10T00:19:14;10.23;84.24
68189;DHT22;66299;47.514;19.218;2023-05-10T00:21:43;10.13;84.47
68189;DHT22;66299;47.514;19.218;2023-05-10T00:24:12;10.03;84.71
68189;DHT22;66299;47.514;19.218;2023-05-10T00:26:43;9.92;85.05
68189;DHT22;66299;47.514;19.218;2023-05-10T00:29:13;9.88;85.31
68189;DHT22;66299;47.514;19.218;2023-05-10T00:31:42;9.91;85.40
68189;DHT22;66299;47.514;19.218;2023-05-10T00:34:10;9.85;86.05
68189;DHT22;66299;47.514;19.218;2023-05-10T00:36:42;9.81;86.37
68189;DHT22;66299;47.514;19.218;2023-05-10T00:39:10;9.88;86.31
68189;DHT22;66299;47.514;19.218;2023-05-10T00:41:45;9.95;86.35
68189;DHT22;66299;47.514;19.218;2023-05-10T00:44:14;10.06;86.25
68189;DHT22;66299;47.514;19.218;2023-05-10T00:46:44;10.09;86.01
68189;DHT22;66299;47.514;19.218;2023-05-10T00:49:16;10.10;85.85
68189;DHT22;66299;47.514;19.218;2023-05-10T00:51:49;10.12;85.83
68189;DHT22;66299;47.514;19.218;2023-05-10T00:54:23;10.06;86.12
68189;DHT22;66299;47.514;19.218;2023-05-10T00:56:52;10.12;86.13
68189;DHT22;66299;47.514;19.218;2023-05-10T00:59:21;10.01;86.23
68189;DHT22;66299;47.514;19.218;2023-05-10T01:01:49;9.96;86.35
68189;DHT22;66299;47.514;19.218;2023-05-10T01:04:21;10.06;86.35
68189;DHT22;66299;47.514;19.218;2023-05-10T01:06:54;10.08;86.47
68189;DHT22;66299;47.514;19.218;2023-05-10T01:09:23;10.06;86.15
68189;DHT22;66299;47.514;19.218;2023-05-10T01:11:58;10.12;86.41
68189;DHT22;66299;47.514;19.218;2023-05-10T01:14:30;10.17;86.44
68189;DHT22;66299;47.514;19.218;2023-05-10T01:17:00;10.16;86.68
68189;DHT22;66299;47.514;19.218;2023-05-10T01:19:31;10.30;86.44
68189;DHT22;66299;47.514;19.218;2023-05-10T01:22:09;10.36;86.28
68189;DHT22;66299;47.514;19.218;2023-05-10T01:25:04;10.36;86.42
68189;DHT22;66299;47.514;19.218;2023-05-10T01:27:51;10.33;86.43
68189;DHT22;66299;47.514;19.218;2023-05-10T01:30:46;10.40;86.32
68189;DHT22;66299;47.514;19.218;2023-05-10T01:33:26;10.49;86.10
68189;DHT22;66299;47.514;19.218;2023-05-10T01:36:02;10.47;86.21
68189;DHT22;66299;47.514;19.218;2023-05-10T01:38:44;10.64;85.80
68189;DHT22;66299;47.514;19.218;2023-05-10T01:41:19;10.60;85.58
68189;DHT22;66299;47.514;19.218;2023-05-10T01:43:54;10.71;85.54
68189;DHT22;66299;47.514;19.218;2023-05-10T01:46:28;10.81;84.80
68189;DHT22;66299;47.514;19.218;2023-05-10T01:49:02;10.97;84.36
68189;DHT22;66299;47.514;19.218;2023-05-10T01:51:38;11.01;83.81
68189;DHT22;66299;47.514;19.218;2023-05-10T01:54:09;11.07;84.11
68189;DHT22;66299;47.514;19.218;2023-05-10T01:56:45;11.18;83.52
68189;DHT22;66299;47.514;19.218;2023-05-10T01:59:18;11.15;83.70
68189;DHT22;66299;47.514;19.218;2023-05-10T02:01:47;11.16;83.83
68189;DHT22;66299;47.514;19.218;2023-05-10T02:04:22;11.14;84.25
68189;DHT22;66299;47.514;19.218;2023-05-10T02:06:54;11.12;84.12
68189;DHT22;66299;47.514;19.218;2023-05-10T02:09:25;11.21;84.20
68189;DHT22;66299;47.514;19.218;2023-05-10T02:11:55;11.16;84.33
68189;DHT22;66299;47.514;19.218;2023-05-10T02:14:26;11.19;84.40
68189;DHT22;66299;47.514;19.218;2023-05-10T02:16:59;11.29;83.44
68189;DHT22;66299;47.514;19.218;2023-05-10T02:19:32;11.33;83.76
68189;DHT22;66299;47.514;19.218;2023-05-10T02:22:03;11.36;83.29
68189;DHT22;66299;47.514;19.218;2023-05-10T02:24:38;11.42;83.01
68189;DHT22;66299;47.514;19.218;2023-05-10T02:27:10;11.52;81.84
68189;DHT22;66299;47.514;19.218;2023-05-10T02:29:41;11.66;81.01
68189;DHT22;66299;47.514;19.218;2023-05-10T02:32:11;11.59;81.18
68189;DHT22;66299;47.514;19.218;2023-05-10T02:34:46;11.63;80.55
68189;DHT22;66299;47.514;19.218;2023-05-10T02:37:24;11.62;80.75
68189;DHT22;66299;47.514;19.218;2023-05-10T02:39:57;11.70;80.28
68189;DHT22;66299;47.514;19.218;2023-05-10T02:42:31;11.69;79.67
68189;DHT22;66299;47.514;19.218;2023-05-10T02:45:08;11.71;79.26
68189;DHT22;66299;47.514;19.218;2023-05-10T02:47:39;11.59;79.76
68189;DHT22;66299;47.514;19.218;2023-05-10T02:50:10;11.59;79.94
68189;DHT22;66299;47.514;19.218;2023-05-10T02:52:42;11.63;79.29
68189;DHT22;66299;47.514;19.218;2023-05-10T02:55:24;11.70;78.65
68189;DHT22;66299;47.514;19.218;2023-05-10T02:57:58;11.66;78.70
68189;DHT22;66299;47.514;19.218;2023-05-10T03:00:29;11.69;78.74
68189;DHT22;66299;47.514;19.218;2023-05-10T03:02:57;11.63;79.46
68189;DHT22;66299;47.514;19.218;2023-05-10T03:05:28;11.56;80.55
68189;DHT22;66299;47.514;19.218;2023-05-10T03:07:59;11.50;81.43
68189;DHT22;66299;47.514;19.218;2023-05-10T03:10:47;11.46;82.65
68189;DHT22;66299;47.514;19.218;2023-05-10T03:13:29;11.32;83.49
68189;DHT22;66299;47.514;19.218;2023-05-10T03:16:08;11.36;83.90
68189;DHT22;66299;47.514;19.218;2023-05-10T03:18:43;11.19;84.41
68189;DHT22;66299;47.514;19.218;2023-05-10T03:21:18;11.14;84.92
68189;DHT22;66299;47.514;19.218;2023-05-10T03:23:51;11.02;85.44
68189;DHT22;66299;47.514;19.218;2023-05-10T03:26:24;11.09;85.72
68189;DHT22;66299;47.514;19.218;2023-05-10T03:28:55;11.02;85.88
68189;DHT22;66299;47.514;19.218;2023-05-10T03:31:30;10.95;86.02
68189;DHT22;66299;47.514;19.218;2023-05-10T03:34:04;10.97;86.33
68189;DHT22;66299;47.514;19.218;2023-05-10T03:36:34;10.90;86.38
68189;DHT22;66299;47.514;19.218;2023-05-10T03:39:06;10.90;86.38
68189;DHT22;66299;47.514;19.218;2023-05-10T03:41:35;10.95;85.92
68189;DHT22;66299;47.514;19.218;2023-05-10T03:44:08;10.95;85.93
68189;DHT22;66299;47.514;19.218;2023-05-10T03:46:37;10.98;85.88
68189;DHT22;66299;47.514;19.218;2023-05-10T03:49:06;11.02;85.80
68189;DHT22;66299;47.514;19.218;2023-05-10T03:51:37;11.01;85.88
68189;DHT22;66299;47.514;19.218;2023-05-10T03:54:06;10.97;85.87
68189;DHT22;66299;47.514;19.218;2023-05-10T03:56:35;10.97;85.90
68189;DHT22;66299;47.514;19.218;2023-05-10T03:59:06;10.98;86.03
68189;DHT22;66299;47.514;19.218;2023-05-10T04:01:38;10.94;85.76
68189;DHT22;66299;47.514;19.218;2023-05-10T04:04:07;10.84;85.94
68189;DHT22;66299;47.514;19.218;2023-05-10T04:06:37;10.84;85.87
68189;DHT22;66299;47.514;19.218;2023-05-10T04:09:07;10.97;84.63
68189;DHT22;66299;47.514;19.218;2023-05-10T04:11:36;10.95;84.66
68189;DHT22;66299;47.514;19.218;2023-05-10T04:14:05;11.00;84.75
68189;DHT22;66299;47.514;19.218;2023-05-10T04:16:34;11.09;84.92
68189;DHT22;66299;47.514;19.218;2023-05-10T04:19:04;11.00;85.43
68189;DHT22;66299;47.514;19.218;2023-05-10T04:21:33;10.98;85.68
68189;DHT22;66299;47.514;19.218;2023-05-10T04:24:06;10.91;85.48
68189;DHT22;66299;47.514;19.218;2023-05-10T04:26:34;10.81;86.04
68189;DHT22;66299;47.514;19.218;2023-05-10T04:29:03;10.84;86.10
68189;DHT22;66299;47.514;19.218;2023-05-10T04:31:31;10.82;86.03
68189;DHT22;66299;47.514;19.218;2023-05-10T04:34:00;10.78;86.21
68189;DHT22;66299;47.514;19.218;2023-05-10T04:36:29;10.84;85.76
68189;DHT22;66299;47.514;19.218;2023-05-10T04:39:00;10.85;85.46
68189;DHT22;66299;47.514;19.218;2023-05-10T04:41:31;10.92;85.32
68189;DHT22;66299;47.514;19.218;2023-05-10T04:44:05;10.90;85.09
68189;DHT22;66299;47.514;19.218;2023-05-10T04:46:34;10.90;85.02
68189;DHT22;66299;47.514;19.218;2023-05-10T04:49:13;10.85;85.11
68189;DHT22;66299;47.514;19.218;2023-05-10T04:51:47;10.73;85.27
68189;DHT22;66299;47.514;19.218;2023-05-10T04:54:17;10.74;85.50
68189;DHT22;66299;47.514;19.218;2023-05-10T04:56:47;10.71;85.14
68189;DHT22;66299;47.514;19.218;2023-05-10T04:59:15;10.70;85.39
68189;DHT22;66299;47.514;19.218;2023-05-10T05:01:46;10.64;85.28
68189;DHT22;66299;47.514;19.218;2023-05-10T05:04:33;10.64;85.39
68189;DHT22;66299;47.514;19.218;2023-05-10T05:07:02;10.61;85.60
68189;DHT22;66299;47.514;19.218;2023-05-10T05:09:31;10.73;85.55
68189;DHT22;66299;47.514;19.218;2023-05-10T05:12:05;10.75;85.40
68189;DHT22;66299;47.514;19.218;2023-05-10T05:14:34;10.81;85.39
68189;DHT22;66299;47.514;19.218;2023-05-10T05:17:10;11.16;85.18
68189;DHT22;66299;47.514;19.218;2023-05-10T05:19:41;11.28;84.72
68189;DHT22;66299;47.514;19.218;2023-05-10T05:22:12;11.39;83.31
68189;DHT22;66299;47.514;19.218;2023-05-10T05:24:42;11.38;83.57
68189;DHT22;66299;47.514;19.218;2023-05-10T05:27:28;11.57;83.06
68189;DHT22;66299;47.514;19.218;2023-05-10T05:29:58;11.76;82.63
68189;DHT22;66299;47.514;19.218;2023-05-10T05:32:31;11.91;82.40
68189;DHT22;66299;47.514;19.218;2023-05-10T05:35:03;11.95;82.13
68189;DHT22;66299;47.514;19.218;2023-05-10T05:37:33;12.07;82.03
68189;DHT22;66299;47.514;19.218;2023-05-10T05:40:05;12.20;80.95
68189;DHT22;66299;47.514;19.218;2023-05-10T05:42:37;12.29;81.12
68189;DHT22;66299;47.514;19.218;2023-05-10T05:45:07;12.46;81.54
68189;DHT22;66299;47.514;19.218;2023-05-10T05:47:42;12.44;80.42
68189;DHT22;66299;47.514;19.218;2023-05-10T05:50:24;12.59;80.15
68189;DHT22;66299;47.514;19.218;2023-05-10T05:52:53;12.50;80.53
68189;DHT22;66299;47.514;19.218;2023-05-10T05:55:23;12.57;80.81
68189;DHT22;66299;47.514;19.218;2023-05-10T05:57:57;12.76;79.88
68189;DHT22;66299;47.514;19.218;2023-05-10T06:00:26;12.79;78.94
68189;DHT22;66299;47.514;19.218;2023-05-10T06:02:55;12.82;79.97
68189;DHT22;66299;47.514;19.218;2023-05-10T06:05:25;13.08;79.33
68189;DHT22;66299;47.514;19.218;2023-05-10T06:07:54;13.08;79.13
68189;DHT22;66299;47.514;19.218;2023-05-10T06:10:24;13.07;78.99
68189;DHT22;66299;47.514;19.218;2023-05-10T06:12:58;13.18;79.00
68189;DHT22;66299;47.514;19.218;2023-05-10T06:15:32;13.07;77.96
68189;DHT22;66299;47.514;19.218;2023-05-10T06:18:01;13.18;79.45
68189;DHT22;66299;47.514;19.218;2023-05-10T06:20:32;13.35;78.33
68189;DHT22;66299;47.514;19.218;2023-05-10T06:23:00;13.14;78.04
68189;DHT22;66299;47.514;19.218;2023-05-10T06:25:29;13.48;77.49
68189;DHT22;66299;47.514;19.218;2023-05-10T06:28:01;13.35;76.78
68189;DHT22;66299;47.514;19.218;2023-05-10T06:30:33;13.50;77.61
68189;DHT22;66299;47.514;19.218;2023-05-10T06:33:02;13.62;76.86
68189;DHT22;66299;47.514;19.218;2023-05-10T06:35:32;13.62;76.65
68189;DHT22;66299;47.514;19.218;2023-05-10T06:38:01;13.54;76.43
68189;DHT22;66299;47.514;19.218;2023-05-10T06:40:32;13.72;76.58
68189;DHT22;66299;47.514;19.218;2023-05-10T06:43:03;13.73;76.41
68189;DHT22;66299;47.514;19.218;2023-05-10T06:45:34;13.99;76.45
68189;DHT22;66299;47.514;19.218;2023-05-10T06:48:04;14.05;75.26
68189;DHT22;66299;47.514;19.218;2023-05-10T06:50:34;14.37;75.64
68189;DHT22;66299;47.514;19.218;2023-05-10T06:53:22;14.58;73.60
68189;DHT22;66299;47.514;19.218;2023-05-10T06:55:55;14.47;73.66
68189;DHT22;66299;47.514;19.218;2023-05-10T06:58:27;14.52;73.24
68189;DHT22;66299;47.514;19.218;2023-05-10T07:01:02;14.48;73.38
68189;DHT22;66299;47.514;19.218;2023-05-10T07:03:31;14.71;73.09
68189;DHT22;66299;47.514;19.218;2023-05-10T07:06:03;14.86;72.30
68189;DHT22;66299;47.514;19.218;2023-05-10T07:08:32;14.88;72.05
68189;DHT22;66299;47.514;19.218;2023-05-10T07:11:01;14.51;72.97
68189;DHT22;66299;47.514;19.218;2023-05-10T07:13:35;14.56;73.07
68189;DHT22;66299;47.514;19.218;2023-05-10T07:16:07;14.24;73.54
68189;DHT22;66299;47.514;19.218;2023-05-10T07:18:38;14.57;74.24
68189;DHT22;66299;47.514;19.218;2023-05-10T07:21:07;14.57;72.94
68189;DHT22;66299;47.514;19.218;2023-05-10T07:23:35;14.84;72.17
68189;DHT22;66299;47.514;19.218;2023-05-10T07:26:09;14.85;71.69
68189;DHT22;66299;47.514;19.218;2023-05-10T07:28:43;14.78;72.08
68189;DHT22;66299;47.514;19.218;2023-05-10T07:31:11;15.05;71.50
68189;DHT22;66299;47.514;19.218;2023-05-10T07:33:40;15.47;71.24
68189;DHT22;66299;47.514;19.218;2023-05-10T07:36:14;15.61;70.06
68189;DHT22;66299;47.514;19.218;2023-05-10T07:38:45;15.74;69.96
68189;DHT22;66299;47.514;19.218;2023-05-10T07:41:14;15.71;70.61
68189;DHT22;66299;47.514;19.218;2023-05-10T07:43:44;16.00;69.38
68189;DHT22;66299;47.514;19.218;2023-05-10T07:46:13;15.98;68.93
68189;DHT22;66299;47.514;19.218;2023-05-10T07:48:42;15.88;68.80
68189;DHT22;66299;47.514;19.218;2023-05-10T07:51:11;15.84;69.39
68189;DHT22;66299;47.514;19.218;2023-05-10T07:53:41;15.67;69.85
68189;DHT22;66299;47.514;19.218;2023-05-10T07:56:22;16.13;70.53
68189;DHT22;66299;47.514;19.218;2023-05-10T07:58:56;16.26;69.58
68189;DHT22;66299;47.514;19.218;2023-05-10T08:01:31;16.25;69.42
68189;DHT22;66299;47.514;19.218;2023-05-10T08:04:04;15.78;69.47
68189;DHT22;66299;47.514;19.218;2023-05-10T08:06:34;16.02;69.02
68189;DHT22;66299;47.514;19.218;2023-05-10T08:09:03;16.74;68.49
68189;DHT22;66299;47.514;19.218;2023-05-10T08:11:32;17.14;66.67
68189;DHT22;66299;47.514;19.218;2023-05-10T08:14:09;16.73;67.64
68189;DHT22;66299;47.514;19.218;2023-05-10T08:16:45;16.92;67.32
68189;DHT22;66299;47.514;19.218;2023-05-10T08:19:13;16.53;68.45
68189;DHT22;66299;47.514;19.218;2023-05-10T08:21:45;16.02;68.46
68189;DHT22;66299;47.514;19.218;2023-05-10T08:24:17;15.85;68.53
68189;DHT22;66299;47.514;19.218;2023-05-10T08:26:46;16.16;69.15
68189;DHT22;66299;47.514;19.218;2023-05-10T08:29:17;15.97;68.67
68189;DHT22;66299;47.514;19.218;2023-05-10T08:31:47;16.26;67.67
68189;DHT22;66299;47.514;19.218;2023-05-10T08:34:16;16.69;67.87
68189;DHT22;66299;47.514;19.218;2023-05-10T08:36:45;16.42;68.53
68189;DHT22;66299;47.514;19.218;2023-05-10T08:39:13;16.26;68.24
68189;DHT22;66299;47.514;19.218;2023-05-10T08:42:01;16.30;66.48
68189;DHT22;66299;47.514;19.218;2023-05-10T08:44:35;16.73;66.33
68189;DHT22;66299;47.514;19.218;2023-05-10T08:47:05;16.53;66.23
68189;DHT22;66299;47.514;19.218;2023-05-10T08:49:37;17.07;64.55
68189;DHT22;66299;47.514;19.218;2023-05-10T08:52:05;17.38;64.48
68189;DHT22;66299;47.514;19.218;2023-05-10T08:54:36;16.97;65.46
68189;DHT22;66299;47.514;19.218;2023-05-10T08:57:05;17.32;65.11
68189;DHT22;66299;47.514;19.218;2023-05-10T08:59:35;17.34;64.50
68189;DHT22;66299;47.514;19.218;2023-05-10T09:02:10;17.67;63.98
68189;DHT22;66299;47.514;19.218;2023-05-10T09:04:44;17.77;63.42
68189;DHT22;66299;47.514;19.218;2023-05-10T09:07:14;18.20;62.65
68189;DHT22;66299;47.514;19.218;2023-05-10T09:09:43;17.31;62.92
68189;DHT22;66299;47.514;19.218;2023-05-10T09:12:16;17.21;64.84
68189;DHT22;66299;47.514;19.218;2023-05-10T09:14:46;17.24;63.86
68189;DHT22;66299;47.514;19.218;2023-05-10T09:17:15;17.46;62.57
68189;DHT22;66299;47.514;19.218;2023-05-10T09:19:45;17.18;63.59
68189;DHT22;66299;47.514;19.218;2023-05-10T09:22:16;16.92;65.06
68189;DHT22;66299;47.514;19.218;2023-05-10T09:25:03;17.76;62.75
68189;DHT22;66299;47.514;19.218;2023-05-10T09:27:31;17.98;61.21
68189;DHT22;66299;47.514;19.218;2023-05-10T09:30:02;17.84;62.07
68189;DHT22;66299;47.514;19.218;2023-05-10T09:32:38;17.57;61.67
68189;DHT22;66299;47.514;19.218;2023-05-10T09:35:11;17.17;62.71
68189;DHT22;66299;47.514;19.218;2023-05-10T09:37:42;17.66;62.77
68189;DHT22;66299;47.514;19.218;2023-05-10T09:40:15;18.73;60.50
68189;DHT22;66299;47.514;19.218;2023-05-10T09:42:51;19.17;59.34
68189;DHT22;66299;47.514;19.218;2023-05-10T09:45:24;19.02;58.09
68189;DHT22;66299;47.514;19.218;2023-05-10T09:47:53;19.13;58.87
68189;DHT22;66299;47.514;19.218;2023-05-10T09:50:22;18.99;61.63
68189;DHT22;66299;47.514;19.218;2023-05-10T09:52:59;19.14;58.53
68189;DHT22;66299;47.514;19.218;2023-05-10T09:55:39;18.61;60.06
68189;DHT22;66299;47.514;19.218;2023-05-10T09:58:09;17.94;59.97
68189;DHT22;66299;47.514;19.218;2023-05-10T10:00:41;17.86;60.56
68189;DHT22;66299;47.514;19.218;2023-05-10T10:03:12;18.32;60.60
68189;DHT22;66299;47.514;19.218;2023-05-10T10:05:49;19.37;58.73
68189;DHT22;66299;47.514;19.218;2023-05-10T10:08:21;19.72;58.57
68189;DHT22;66299;47.514;19.218;2023-05-10T10:10:58;19.31;55.55
68189;DHT22;66299;47.514;19.218;2023-05-10T10:13:28;19.43;57.07
68189;DHT22;66299;47.514;19.218;2023-05-10T10:16:02;19.69;55.96
68189;DHT22;66299;47.514;19.218;2023-05-10T10:18:31;18.88;56.83
68189;DHT22;66299;47.514;19.218;2023-05-10T10:21:10;18.18;57.94
68189;DHT22;66299;47.514;19.218;2023-05-10T10:23:39;18.04;58.57
68189;DHT22;66299;47.514;19.218;2023-05-10T10:26:15;18.48;57.57
68189;DHT22;66299;47.514;19.218;2023-05-10T10:28:56;19.54;57.79
68189;DHT22;66299;47.514;19.218;2023-05-10T10:31:36;20.16;54.08
68189;DHT22;66299;47.514;19.218;2023-05-10T10:34:08;20.65;52.21
68189;DHT22;66299;47.514;19.218;2023-05-10T10:36:45;21.30;52.79
68189;DHT22;66299;47.514;19.218;2023-05-10T10:39:14;20.74;51.29
68189;DHT22;66299;47.514;19.218;2023-05-10T10:41:53;20.05;54.04
68189;DHT22;66299;47.514;19.218;2023-05-10T10:44:36;19.74;55.06
68189;DHT22;66299;47.514;19.218;2023-05-10T10:47:23;19.37;55.15
68189;DHT22;66299;47.514;19.218;2023-05-10T10:50:07;19.62;54.10
68189;DHT22;66299;47.514;19.218;2023-05-10T10:52:38;20.26;52.75
68189;DHT22;66299;47.514;19.218;2023-05-10T10:55:09;19.55;54.17
68189;DHT22;66299;47.514;19.218;2023-05-10T10:57:45;19.99;54.82
68189;DHT22;66299;47.514;19.218;2023-05-10T11:00:22;19.67;54.86
68189;DHT22;66299;47.514;19.218;2023-05-10T11:02:56;19.64;55.24
68189;DHT22;66299;47.514;19.218;2023-05-10T11:05:44;19.02;56.13
68189;DHT22;66299;47.514;19.218;2023-05-10T11:08:15;18.35;56.34
68189;DHT22;66299;47.514;19.218;2023-05-10T11:11:08;18.49;56.67
68189;DHT22;66299;47.514;19.218;2023-05-10T11:13:41;18.92;55.74
68189;DHT22;66299;47.514;19.218;2023-05-10T11:16:16;19.17;55.51
68189;DHT22;66299;47.514;19.218;2023-05-10T11:19:02;18.83;55.44
68189;DHT22;66299;47.514;19.218;2023-05-10T11:21:34;19.27;55.04
68189;DHT22;66299;47.514;19.218;2023-05-10T11:24:18;19.00;55.67
68189;DHT22;66299;47.514;19.218;2023-05-10T11:26:53;19.59;53.96
68189;DHT22;66299;47.514;19.218;2023-05-10T11:29:27;20.77;52.05
68189;DHT22;66299;47.514;19.218;2023-05-10T11:32:02;21.35;50.54
68189;DHT22;66299;47.514;19.218;2023-05-10T11:34:39;21.78;50.84
68189;DHT22;66299;47.514;19.218;2023-05-10T11:37:09;20.74;51.01
68189;DHT22;66299;47.514;19.218;2023-05-10T11:39:38;20.34;52.33
68189;DHT22;66299;47.514;19.218;2023-05-10T11:42:07;19.92;52.56
68189;DHT22;66299;47.514;19.218;2023-05-10T11:44:38;19.64;52.60
68189;DHT22;66299;47.514;19.218;2023-05-10T11:47:09;19.41;52.58
68189;DHT22;66299;47.514;19.218;2023-05-10T11:49:45;19.19;53.80
68189;DHT22;66299;47.514;19.218;2023-05-10T11:52:13;19.24;53.53
68189;DHT22;66299;47.514;19.218;2023-05-10T11:54:50;19.37;53.42
68189;DHT22;66299;47.514;19.218;2023-05-10T11:57:20;19.64;52.38
68189;DHT22;66299;47.514;19.218;2023-05-10T11:59:53;19.23;51.63
68189;DHT22;66299;47.514;19.218;2023-05-10T12:02:23;19.44;50.77
68189;DHT22;66299;47.514;19.218;2023-05-10T12:05:00;20.22;50.87
68189;DHT22;66299;47.514;19.218;2023-05-10T12:07:35;20.44;50.21
68189;DHT22;66299;47.514;19.218;2023-05-10T12:10:09;19.61;52.50
68189;DHT22;66299;47.514;19.218;2023-05-10T12:12:46;19.06;53.26
68189;DHT22;66299;47.514;19.218;2023-05-10T12:15:18;18.88;54.68
68189;DHT22;66299;47.514;19.218;2023-05-10T12:17:49;18.79;55.32
68189;DHT22;66299;47.514;19.218;2023-05-10T12:20:28;19.67;53.53
68189;DHT22;66299;47.514;19.218;2023-05-10T12:22:59;19.69;50.96
68189;DHT22;66299;47.514;19.218;2023-05-10T12:25:33;19.46;51.68
68189;DHT22;66299;47.514;19.218;2023-05-10T12:28:05;19.41;52.93
68189;DHT22;66299;47.514;19.218;2023-05-10T12:30:38;19.34;52.49
68189;DHT22;66299;47.514;19.218;2023-05-10T12:33:10;20.16;51.19
68189;DHT22;66299;47.514;19.218;2023-05-10T12:35:48;20.00;50.95
68189;DHT22;66299;47.514;19.218;2023-05-10T12:38:26;19.74;53.39
68189;DHT22;66299;47.514;19.218;2023-05-10T12:40:57;19.53;53.20
68189;DHT22;66299;47.514;19.218;2023-05-10T12:43:26;19.38;54.46
68189;DHT22;66299;47.514;19.218;2023-05-10T12:45:58;19.61;53.64
68189;DHT22;66299;47.514;19.218;2023-05-10T12:48:27;19.57;53.91
68189;DHT22;66299;47.514;19.218;2023-05-10T12:51:05;19.71;53.90
68189;DHT22;66299;47.514;19.218;2023-05-10T12:53:36;20.10;52.58
68189;DHT22;66299;47.514;19.218;2023-05-10T12:56:11;20.00;54.36
68189;DHT22;66299;47.514;19.218;2023-05-10T12:58:39;19.82;53.67
68189;DHT22;66299;47.514;19.218;2023-05-10T13:01:12;20.08;53.32
68189;DHT22;66299;47.514;19.218;2023-05-10T13:03:41;20.20;52.19
68189;DHT22;66299;47.514;19.218;2023-05-10T13:06:13;20.30;51.87
68189;DHT22;66299;47.514;19.218;2023-05-10T13:08:42;20.27;51.33
68189;DHT22;66299;47.514;19.218;2023-05-10T13:11:10;20.13;51.41
68189;DHT22;66299;47.514;19.218;2023-05-10T13:13:46;20.04;51.68
68189;DHT22;66299;47.514;19.218;2023-05-10T13:16:18;20.36;51.33
68189;DHT22;66299;47.514;19.218;2023-05-10T13:18:47;20.12;51.41
68189;DHT22;66299;47.514;19.218;2023-05-10T13:21:20;20.12;51.87
68189;DHT22;66299;47.514;19.218;2023-05-10T13:23:50;20.15;51.14
68189;DHT22;66299;47.514;19.218;2023-05-10T13:26:19;20.15;52.77
68189;DHT22;66299;47.514;19.218;2023-05-10T13:28:48;19.81;49.16
68189;DHT22;66299;47.514;19.218;2023-05-10T13:31:18;19.61;50.80
68189;DHT22;66299;47.514;19.218;2023-05-10T13:33:52;19.69;50.16
68189;DHT22;66299;47.514;19.218;2023-05-10T13:36:22;19.89;50.06
68189;DHT22;66299;47.514;19.218;2023-05-10T13:38:54;20.12;49.97
68189;DHT22;66299;47.514;19.218;2023-05-10T13:41:22;20.40;48.87
68189;DHT22;66299;47.514;19.218;2023-05-10T13:43:59;20.46;48.74
68189;DHT22;66299;47.514;19.218;2023-05-10T13:46:30;20.16;49.72
68189;DHT22;66299;47.514;19.218;2023-05-10T13:48:59;20.00;51.28
68189;DHT22;66299;47.514;19.218;2023-05-10T13:51:29;19.88;51.16
68189;DHT22;66299;47.514;19.218;2023-05-10T13:53:58;20.10;52.07
68189;DHT22;66299;47.514;19.218;2023-05-10T13:56:27;19.89;50.00
68189;DHT22;66299;47.514;19.218;2023-05-10T13:58:56;19.65;49.61
68189;DHT22;66299;47.514;19.218;2023-05-10T14:01:25;19.47;50.50
68189;DHT22;66299;47.514;19.218;2023-05-10T14:03:54;19.51;49.90
68189;DHT22;66299;47.514;19.218;2023-05-10T14:06:29;19.67;50.18
68189;DHT22;66299;47.514;19.218;2023-05-10T14:08:58;19.97;49.94
68189;DHT22;66299;47.514;19.218;2023-05-10T14:11:27;20.77;49.09
68189;DHT22;66299;47.514;19.218;2023-05-10T14:13:55;21.01;47.13
68189;DHT22;66299;47.514;19.218;2023-05-10T14:16:24;21.49;48.24
68189;DHT22;66299;47.514;19.218;2023-05-10T14:18:54;21.47;47.68
68189;DHT22;66299;47.514;19.218;2023-05-10T14:21:23;21.28;46.43
68189;DHT22;66299;47.514;19.218;2023-05-10T14:23:53;21.29;48.38
68189;DHT22;66299;47.514;19.218;2023-05-10T14:26:29;20.92;47.66
68189;DHT22;66299;47.514;19.218;2023-05-10T14:28:59;20.65;49.18
68189;DHT22;66299;47.514;19.218;2023-05-10T14:31:28;20.84;49.36
68189;DHT22;66299;47.514;19.218;2023-05-10T14:34:00;20.84;49.13
68189;DHT22;66299;47.514;19.218;2023-05-10T14:36:31;20.30;49.16
68189;DHT22;66299;47.514;19.218;2023-05-10T14:39:01;19.90;49.34
68189;DHT22;66299;47.514;19.218;2023-05-10T14:41:31;20.15;49.56
68189;DHT22;66299;47.514;19.218;2023-05-10T14:44:03;20.51;49.07
68189;DHT22;66299;47.514;19.218;2023-05-10T14:46:35;20.12;47.51
68189;DHT22;66299;47.514;19.218;2023-05-10T14:49:04;19.65;47.63
68189;DHT22;66299;47.514;19.218;2023-05-10T14:51:33;20.00;49.01
68189;DHT22;66299;47.514;19.218;2023-05-10T14:54:05;19.86;47.81
68189;DHT22;66299;47.514;19.218;2023-05-10T14:56:37;19.74;47.41
68189;DHT22;66299;47.514;19.218;2023-05-10T14:59:12;20.10;46.96
68189;DHT22;66299;47.514;19.218;2023-05-10T15:01:45;20.60;45.63
68189;DHT22;66299;47.514;19.218;2023-05-10T15:04:14;20.84;46.31
68189;DHT22;66299;47.514;19.218;2023-05-10T15:06:47;21.13;46.15
68189;DHT22;66299;47.514;19.218;2023-05-10T15:09:18;20.67;46.01
68189;DHT22;66299;47.514;19.218;2023-05-10T15:11:47;20.46;46.21
68189;DHT22;66299;47.514;19.218;2023-05-10T15:14:17;20.71;45.91
68189;DHT22;66299;47.514;19.218;2023-05-10T15:16:46;20.46;47.52
68189;DHT22;66299;47.514;19.218;2023-05-10T15:19:15;20.19;47.42
68189;DHT22;66299;47.514;19.218;2023-05-10T15:21:43;20.05;47.91
68189;DHT22;66299;47.514;19.218;2023-05-10T15:24:18;20.17;47.82
68189;DHT22;66299;47.514;19.218;2023-05-10T15:26:47;20.17;48.49
68189;DHT22;66299;47.514;19.218;2023-05-10T15:29:16;20.27;49.35
68189;DHT22;66299;47.514;19.218;2023-05-10T15:31:49;20.32;48.77
68189;DHT22;66299;47.514;19.218;2023-05-10T15:34:22;19.99;48.87
68189;DHT22;66299;47.514;19.218;2023-05-10T15:36:56;19.92;49.89
68189;DHT22;66299;47.514;19.218;2023-05-10T15:39:27;19.90;50.16
68189;DHT22;66299;47.514;19.218;2023-05-10T15:42:07;20.12;49.93
68189;DHT22;66299;47.514;19.218;2023-05-10T15:44:35;20.08;50.19
68189;DHT22;66299;47.514;19.218;2023-05-10T15:47:06;19.75;50.94
68189;DHT22;66299;47.514;19.218;2023-05-10T15:49:34;19.58;48.81